createdAt,value
2024-02-12T00:00:23.617Z,7.05
2024-02-12T00:02:50.277Z,7.08
2024-02-12T00:05:22.310Z,7.06
2024-02-12T00:07:49.036Z,7.00
2024-02-12T00:10:15.849Z,7.03
2024-02-12T00:12:43.208Z,7.00
2024-02-12T00:15:13.689Z,7.03
2024-02-12T00:17:41.705Z,7.09
2024-02-12T00:20:12.874Z,7.10
2024-02-12T00:22:42.678Z,7.12
2024-02-12T00:25:12.614Z,7.04
2024-02-12T00:27:39.838Z,7.04
2024-02-12T00:30:09.626Z,6.95
2024-02-12T00:32:37.891Z,7.06
2024-02-12T00:35:06.005Z,7.10
2024-02-12T00:37:35.852Z,7.08
2024-02-12T00:40:09.764Z,7.05
2024-02-12T00:42:37.153Z,7.12
2024-02-12T00:45:04.611Z,7.08
2024-02-12T00:47:31.350Z,7.07
2024-02-12T00:50:00.679Z,7.14
2024-02-12T00:52:28.048Z,7.14
2024-02-12T00:54:54.527Z,7.20
2024-02-12T00:57:21.979Z,7.10
2024-02-12T00:59:48.486Z,7.16
2024-02-12T01:02:15.208Z,7.11
2024-02-12T01:04:43.942Z,7.10
2024-02-12T01:07:10.523Z,7.11
2024-02-12T01:09:39.638Z,7.19
2024-02-12T01:12:06.233Z,7.15
2024-02-12T01:14:32.822Z,7.19
2024-02-12T01:17:01.657Z,7.21
2024-02-12T01:19:34.947Z,7.19
2024-02-12T01:22:07.465Z,7.21
2024-02-12T01:24:33.997Z,7.23
2024-02-12T01:27:02.757Z,7.06
2024-02-12T01:29:30.818Z,7.24
2024-02-12T01:32:01.300Z,7.27
2024-02-12T01:34:29.753Z,7.29
2024-02-12T01:36:56.244Z,7.15
2024-02-12T01:39:23.507Z,7.30
2024-02-12T01:41:50.102Z,7.27
2024-02-12T01:44:22.009Z,7.37
2024-02-12T01:46:50.479Z,7.36
2024-02-12T01:49:23.216Z,7.25
2024-02-12T01:51:50.503Z,7.28
2024-02-12T01:54:18.516Z,7.26
2024-02-12T01:56:48.630Z,7.28
2024-02-12T01:59:19.279Z,7.33
2024-02-12T02:01:48.977Z,7.11
2024-02-12T02:04:18.620Z,7.30
2024-02-12T02:06:54.062Z,7.35
2024-02-12T02:09:25.138Z,7.26
2024-02-12T02:11:53.021Z,7.27
2024-02-12T02:14:24.271Z,7.05
2024-02-12T02:16:50.847Z,7.26
2024-02-12T02:19:19.749Z,7.36
2024-02-12T02:21:47.116Z,7.25
2024-02-12T02:24:16.305Z,7.30
2024-02-12T02:26:45.543Z,7.37
2024-02-12T02:29:14.333Z,7.39
2024-02-12T02:31:43.102Z,7.34
2024-02-12T02:34:11.919Z,7.40
2024-02-12T02:36:38.624Z,7.43
2024-02-12T02:39:05.933Z,7.40
2024-02-12T02:41:34.964Z,7.47
2024-02-12T02:44:02.815Z,7.52
2024-02-12T02:46:31.810Z,7.44
2024-02-12T02:49:03.628Z,7.27
2024-02-12T02:51:30.657Z,7.52
2024-02-12T02:54:04.342Z,7.50
2024-02-12T02:56:30.941Z,7.47
2024-02-12T02:58:58.525Z,7.56
2024-02-12T03:01:25.121Z,7.56
2024-02-12T03:03:53.103Z,7.53
2024-02-12T03:06:20.389Z,7.58
2024-02-12T03:08:50.236Z,7.56
2024-02-12T03:11:21.111Z,7.64
2024-02-12T03:13:47.661Z,7.42
2024-02-12T03:16:17.210Z,7.67
2024-02-12T03:18:47.065Z,7.57
2024-02-12T03:21:21.654Z,7.49
2024-02-12T03:23:48.861Z,7.45
2024-02-12T03:26:18.481Z,7.38
2024-02-12T03:28:45.381Z,7.41
2024-02-12T03:31:14.652Z,7.49
2024-02-12T03:33:43.342Z,7.41
2024-02-12T03:36:10.487Z,7.39
2024-02-12T03:38:38.534Z,7.52
2024-02-12T03:41:08.432Z,7.51
2024-02-12T03:43:39.242Z,7.48
2024-02-12T03:46:06.671Z,7.50
2024-02-12T03:48:51.663Z,7.39
2024-02-12T03:51:47.813Z,7.29
2024-02-12T03:54:33.977Z,7.34
2024-02-12T03:57:19.412Z,7.36
2024-02-12T03:59:55.248Z,7.32
2024-02-12T04:02:23.154Z,7.32
2024-02-12T04:04:55.646Z,7.30
2024-02-12T04:07:26.112Z,7.36
2024-02-12T04:09:52.841Z,7.20
2024-02-12T04:12:19.473Z,7.16
2024-02-12T04:14:48.865Z,7.00
2024-02-12T04:17:15.905Z,7.15
2024-02-12T04:19:43.974Z,7.14
2024-02-12T04:22:15.732Z,7.25
2024-02-12T04:24:43.145Z,7.32
2024-02-12T04:27:12.437Z,7.27
2024-02-12T04:29:40.224Z,7.34
2024-02-12T04:32:13.054Z,7.31
2024-02-12T04:34:41.766Z,7.19
2024-02-12T04:37:12.555Z,7.24
2024-02-12T04:39:39.589Z,7.19
2024-02-12T04:42:08.500Z,7.03
2024-02-12T04:44:35.155Z,7.23
2024-02-12T04:47:04.140Z,7.14
2024-02-12T04:49:37.591Z,7.10
2024-02-12T04:52:05.444Z,7.16
2024-02-12T04:54:31.976Z,7.23
2024-02-12T04:56:58.410Z,7.20
2024-02-12T04:59:24.915Z,7.18
2024-02-12T05:01:56.030Z,7.12
2024-02-12T05:04:25.319Z,7.18
2024-02-12T05:06:52.015Z,7.14
2024-02-12T05:09:18.460Z,7.04
2024-02-12T05:11:44.909Z,6.94
2024-02-12T05:14:13.915Z,6.86
2024-02-12T05:16:40.614Z,6.92
2024-02-12T05:19:25.484Z,6.85
2024-02-12T05:22:10.782Z,6.88
2024-02-12T05:24:37.513Z,6.88
2024-02-12T05:27:06.302Z,6.80
2024-02-12T05:29:32.858Z,6.86
2024-02-12T05:32:00.148Z,6.87
2024-02-12T05:34:29.304Z,6.89
2024-02-12T05:36:56.205Z,6.55
2024-02-12T05:39:23.333Z,6.58
2024-02-12T05:41:50.198Z,6.60
2024-02-12T05:44:17.746Z,6.68
2024-02-12T05:46:46.818Z,6.73
2024-02-12T05:49:23.277Z,6.43
2024-02-12T05:51:50.359Z,6.53
2024-02-12T05:54:17.033Z,6.50
2024-02-12T05:56:45.132Z,6.58
2024-02-12T05:59:12.853Z,6.57
2024-02-12T06:01:39.957Z,6.68
2024-02-12T06:04:06.680Z,6.50
2024-02-12T06:06:41.182Z,6.53
2024-02-12T06:09:09.327Z,6.66
2024-02-12T06:11:38.565Z,6.60
2024-02-12T06:14:09.177Z,6.65
2024-02-12T06:16:39.623Z,6.78
2024-02-12T06:19:08.282Z,6.83
2024-02-12T06:21:36.789Z,6.69
2024-02-12T06:24:06.130Z,6.76
2024-02-12T06:26:34.994Z,6.61
2024-02-12T06:29:04.758Z,6.87
2024-02-12T06:31:36.081Z,6.72
2024-02-12T06:34:05.548Z,6.67
2024-02-12T06:36:34.509Z,6.67
2024-02-12T06:39:01.068Z,6.72
2024-02-12T06:41:33.134Z,6.60
2024-02-12T06:44:05.035Z,6.70
2024-02-12T06:46:31.512Z,6.83
2024-02-12T06:49:00.324Z,6.77
2024-02-12T06:51:26.806Z,6.81
2024-02-12T06:53:55.586Z,6.74
2024-02-12T06:56:24.417Z,6.83
2024-02-12T06:58:53.313Z,6.81
2024-02-12T07:01:19.867Z,6.83
2024-02-12T07:03:48.095Z,6.75
2024-02-12T07:06:15.033Z,6.59
2024-02-12T07:08:42.950Z,6.74
2024-02-12T07:11:16.392Z,6.80
2024-02-12T07:13:43.406Z,6.82
2024-02-12T07:16:18.329Z,6.73
2024-02-12T07:18:48.521Z,6.83
2024-02-12T07:21:15.847Z,6.90
2024-02-12T07:23:42.514Z,6.99
2024-02-12T07:26:11.368Z,6.89
2024-02-12T07:28:38.104Z,7.02
2024-02-12T07:31:07.345Z,7.08
2024-02-12T07:33:34.182Z,7.13
2024-02-12T07:36:03.363Z,6.76
2024-02-12T07:38:32.023Z,6.95
2024-02-12T07:41:01.339Z,6.80
2024-02-12T07:43:29.340Z,6.75
2024-02-12T07:46:01.366Z,6.78
2024-02-12T07:48:29.359Z,6.70
2024-02-12T07:50:58.809Z,6.69
2024-02-12T07:53:28.875Z,6.60
2024-02-12T07:56:01.978Z,6.74
2024-02-12T07:58:28.456Z,6.70
2024-02-12T08:00:55.121Z,6.66
2024-02-12T08:03:27.057Z,6.70
2024-02-12T08:05:53.806Z,6.80
2024-02-12T08:08:20.340Z,6.84
2024-02-12T08:10:52.619Z,6.90
2024-02-12T08:13:20.200Z,6.89
2024-02-12T08:15:47.744Z,6.93
2024-02-12T08:18:14.539Z,6.90
2024-02-12T08:20:41.402Z,6.93
2024-02-12T08:23:08.131Z,7.02
2024-02-12T08:25:34.978Z,7.04
2024-02-12T08:28:04.201Z,6.96
2024-02-12T08:30:31.273Z,6.93
2024-02-12T08:33:00.393Z,6.99
2024-02-12T08:35:29.419Z,6.98
2024-02-12T08:37:56.562Z,6.85
2024-02-12T08:40:23.748Z,6.92
2024-02-12T08:42:51.503Z,6.91
2024-02-12T08:45:18.222Z,6.86
2024-02-12T08:47:44.839Z,6.94
2024-02-12T08:50:13.632Z,6.99
2024-02-12T08:52:40.567Z,6.99
2024-02-12T08:55:12.511Z,7.02
2024-02-12T08:57:42.632Z,6.99
2024-02-12T09:00:13.747Z,7.08
2024-02-12T09:02:43.329Z,7.15
2024-02-12T09:05:12.752Z,7.14
2024-02-12T09:07:45.937Z,7.20
2024-02-12T09:10:15.178Z,7.22
2024-02-12T09:12:51.800Z,7.21
2024-02-12T09:15:20.853Z,7.15
2024-02-12T09:17:48.433Z,7.19
2024-02-12T09:20:15.848Z,7.03
2024-02-12T09:22:42.493Z,7.28
2024-02-12T09:25:15.411Z,7.36
2024-02-12T09:27:48.105Z,7.39
2024-02-12T09:30:17.538Z,7.46
2024-02-12T09:32:44.620Z,7.40
2024-02-12T09:35:13.960Z,7.44
2024-02-12T09:37:41.412Z,7.56
2024-02-12T09:40:08.758Z,7.55
2024-02-12T09:42:36.507Z,7.64
2024-02-12T09:45:08.441Z,7.76
2024-02-12T09:47:37.169Z,7.88
2024-02-12T09:50:06.119Z,7.85
2024-02-12T09:52:32.776Z,7.82
2024-02-12T09:54:59.375Z,7.80
2024-02-12T09:57:28.136Z,7.78
2024-02-12T09:59:57.559Z,7.86
2024-02-12T10:02:26.450Z,7.81
2024-02-12T10:04:54.003Z,7.79
2024-02-12T10:07:20.476Z,7.89
2024-02-12T10:09:51.566Z,7.91
2024-02-12T10:12:20.273Z,7.86
2024-02-12T10:14:46.840Z,7.80
2024-02-12T10:17:19.715Z,7.87
2024-02-12T10:19:46.402Z,7.84
2024-02-12T10:22:12.849Z,7.64
2024-02-12T10:24:44.788Z,7.55
2024-02-12T10:27:15.001Z,7.44
2024-02-12T10:29:41.844Z,7.53
2024-02-12T10:32:10.287Z,7.26
2024-02-12T10:34:40.839Z,7.44
2024-02-12T10:37:09.404Z,7.55
2024-02-12T10:39:40.638Z,7.48
2024-02-12T10:42:10.428Z,7.39
2024-02-12T10:44:39.212Z,7.46
2024-02-12T10:47:10.950Z,7.50
2024-02-12T10:49:40.894Z,7.48
2024-02-12T10:52:08.238Z,7.62
2024-02-12T10:54:34.827Z,7.55
2024-02-12T10:57:02.070Z,7.48
2024-02-12T10:59:31.284Z,7.58
2024-02-12T11:01:57.861Z,7.61
2024-02-12T11:04:28.189Z,7.85
2024-02-12T11:06:57.935Z,8.06
2024-02-12T11:09:32.051Z,7.98
2024-02-12T11:11:59.386Z,8.14
2024-02-12T11:14:33.579Z,8.13
2024-02-12T11:17:06.907Z,7.79
2024-02-12T11:19:33.976Z,8.17
2024-02-12T11:22:00.739Z,8.30
2024-02-12T11:24:41.326Z,8.48
2024-02-12T11:27:09.899Z,8.49
2024-02-12T11:29:42.531Z,8.37
2024-02-12T11:32:09.452Z,8.22
2024-02-12T11:34:35.953Z,8.06
2024-02-12T11:37:04.774Z,8.06
2024-02-12T11:39:34.284Z,8.05
2024-02-12T11:42:01.628Z,8.26
2024-02-12T11:44:29.653Z,8.27
2024-02-12T11:47:00.327Z,8.41
2024-02-12T11:49:29.535Z,8.57
2024-02-12T11:51:56.743Z,8.69
2024-02-12T11:54:27.805Z,8.85
2024-02-12T11:56:56.850Z,8.83
2024-02-12T11:59:26.325Z,9.02
2024-02-12T12:01:52.911Z,9.11
2024-02-12T12:04:24.465Z,8.86
2024-02-12T12:06:51.441Z,8.97
2024-02-12T12:09:21.019Z,8.91
2024-02-12T12:11:51.622Z,8.91
2024-02-12T12:14:18.181Z,9.07
2024-02-12T12:17:27.705Z,9.11
2024-02-12T12:19:36.657Z,9.09
2024-02-12T12:22:18.429Z,9.11
2024-02-12T12:24:47.783Z,9.00
2024-02-12T12:27:27.418Z,9.06
2024-02-12T12:29:55.515Z,9.00
2024-02-12T12:32:22.125Z,9.04
2024-02-12T12:34:48.675Z,8.93
2024-02-12T12:37:15.930Z,9.03
2024-02-12T12:39:43.788Z,8.99
2024-02-12T12:42:13.254Z,8.99
2024-02-12T12:44:42.723Z,8.98
2024-02-12T12:47:09.426Z,9.03
2024-02-12T12:49:38.508Z,9.04
2024-02-12T12:52:08.404Z,9.00
2024-02-12T12:54:38.379Z,8.86
2024-02-12T12:57:08.197Z,8.99
2024-02-12T12:59:34.967Z,8.98
2024-02-12T13:02:07.355Z,9.00
2024-02-12T13:04:36.104Z,9.04
2024-02-12T13:07:04.966Z,8.96
2024-02-12T13:09:33.768Z,9.10
2024-02-12T13:12:02.868Z,9.19
2024-02-12T13:14:31.858Z,9.24
2024-02-12T13:16:59.502Z,9.24
2024-02-12T13:19:26.052Z,9.41
2024-02-12T13:21:54.582Z,9.34
2024-02-12T13:24:21.409Z,9.54
2024-02-12T13:26:48.038Z,9.56
2024-02-12T13:29:16.043Z,9.37
2024-02-12T13:31:49.865Z,9.38
2024-02-12T13:34:16.937Z,9.19
2024-02-12T13:36:45.516Z,9.38
2024-02-12T13:39:15.243Z,9.30
2024-02-12T13:41:47.797Z,9.23
2024-02-12T13:44:19.079Z,9.26
2024-02-12T13:46:48.031Z,9.17
2024-02-12T13:49:16.265Z,9.16
2024-02-12T13:51:44.010Z,9.12
2024-02-12T13:54:10.579Z,9.08
2024-02-12T13:56:39.489Z,9.16
2024-02-12T13:59:08.329Z,9.13
2024-02-12T14:01:43.555Z,9.09
2024-02-12T14:04:20.352Z,9.12
2024-02-12T14:06:52.385Z,9.10
2024-02-12T14:09:25.838Z,9.14
2024-02-12T14:11:52.613Z,9.02
2024-02-12T14:14:21.441Z,9.17
2024-02-12T14:16:48.186Z,9.15
2024-02-12T14:19:14.835Z,9.18
2024-02-12T14:21:43.879Z,9.23
2024-02-12T14:24:12.761Z,9.26
2024-02-12T14:26:42.433Z,9.32
2024-02-12T14:29:27.738Z,9.14
2024-02-12T14:32:36.934Z,9.21
2024-02-12T14:34:48.229Z,9.27
2024-02-12T14:37:19.761Z,9.19
2024-02-12T14:39:48.694Z,9.09
2024-02-12T14:42:17.960Z,9.31
2024-02-12T14:44:44.551Z,9.30
2024-02-12T14:47:13.019Z,9.30
2024-02-12T14:49:39.575Z,9.33
2024-02-12T14:52:08.038Z,9.09
2024-02-12T14:54:34.634Z,9.19
2024-02-12T14:57:01.128Z,9.26
2024-02-12T14:59:29.955Z,9.25
2024-02-12T15:01:56.941Z,9.16
2024-02-12T15:04:25.667Z,9.29
2024-02-12T15:06:52.777Z,9.24
2024-02-12T15:09:26.333Z,9.32
2024-02-12T15:11:55.335Z,9.36
2024-02-12T15:14:23.207Z,9.41
2024-02-12T15:16:52.719Z,9.43
2024-02-12T15:19:23.487Z,9.25
2024-02-12T15:21:50.325Z,9.29
2024-02-12T15:24:16.766Z,9.31
2024-02-12T15:26:43.223Z,9.33
2024-02-12T15:29:09.772Z,9.21
2024-02-12T15:31:40.354Z,9.16
2024-02-12T15:34:06.957Z,9.21
2024-02-12T15:36:33.501Z,9.24
2024-02-12T15:39:01.613Z,9.20
2024-02-12T15:41:28.152Z,9.21
2024-02-12T15:43:54.942Z,9.22
2024-02-12T15:46:21.491Z,9.16
2024-02-12T15:48:48.115Z,9.23
2024-02-12T15:51:15.263Z,9.17
2024-02-12T15:53:46.139Z,9.08
2024-02-12T15:56:19.262Z,9.08
2024-02-12T15:58:47.181Z,9.03
2024-02-12T16:01:13.797Z,8.99
2024-02-12T16:03:42.806Z,8.96
2024-02-12T16:06:15.189Z,8.95
2024-02-12T16:08:46.144Z,9.08
2024-02-12T16:11:17.239Z,8.76
2024-02-12T16:13:50.564Z,9.00
2024-02-12T16:16:19.763Z,8.82
2024-02-12T16:18:49.721Z,8.93
2024-02-12T16:21:17.245Z,9.04
2024-02-12T16:23:43.940Z,8.76
2024-02-12T16:26:13.207Z,8.88
2024-02-12T16:28:39.981Z,8.79
2024-02-12T16:31:06.487Z,8.90
2024-02-12T16:33:36.683Z,8.66
2024-02-12T16:36:08.328Z,8.66
2024-02-12T16:38:37.093Z,8.64
2024-02-12T16:41:06.889Z,8.60
2024-02-12T16:43:36.386Z,8.24
2024-02-12T16:46:04.539Z,8.52
2024-02-12T16:48:39.459Z,8.44
2024-02-12T16:51:06.527Z,8.45
2024-02-12T16:53:35.608Z,8.54
2024-02-12T16:56:04.665Z,8.55
2024-02-12T16:58:32.276Z,8.58
2024-02-12T17:01:00.910Z,8.42
2024-02-12T17:03:27.500Z,8.48
2024-02-12T17:05:54.138Z,8.52
2024-02-12T17:08:23.069Z,8.43
2024-02-12T17:10:49.498Z,8.06
2024-02-12T17:13:16.659Z,8.03
2024-02-12T17:15:45.547Z,8.30
2024-02-12T17:18:13.226Z,8.26
2024-02-12T17:20:42.522Z,8.34
2024-02-12T17:23:09.458Z,8.19
2024-02-12T17:25:38.147Z,8.14
2024-02-12T17:28:04.924Z,8.22
2024-02-12T17:30:33.718Z,8.16
2024-02-12T17:33:01.564Z,8.26
2024-02-12T17:35:28.156Z,8.08
2024-02-12T17:37:57.029Z,7.84
2024-02-12T17:40:25.831Z,7.83
2024-02-12T17:42:53.459Z,7.42
2024-02-12T17:45:20.597Z,7.50
2024-02-12T17:47:47.286Z,7.55
2024-02-12T17:50:19.461Z,7.41
2024-02-12T17:52:45.986Z,7.29
2024-02-12T17:55:12.486Z,7.19
2024-02-12T17:57:38.931Z,7.36
2024-02-12T18:00:12.749Z,7.46
2024-02-12T18:02:41.826Z,7.37
2024-02-12T18:05:13.068Z,7.16
2024-02-12T18:07:39.912Z,7.22
2024-02-12T18:10:13.598Z,7.19
2024-02-12T18:12:45.382Z,7.26
2024-02-12T18:15:16.403Z,7.10
2024-02-12T18:17:43.740Z,7.19
2024-02-12T18:20:12.309Z,7.15
2024-02-12T18:22:41.065Z,6.97
2024-02-12T18:25:12.708Z,6.91
2024-02-12T18:27:42.446Z,6.84
2024-02-12T18:30:12.135Z,6.98
2024-02-12T18:32:42.379Z,6.99
2024-02-12T18:35:11.699Z,6.82
2024-02-12T18:37:41.454Z,6.92
2024-02-12T18:40:17.599Z,6.84
2024-02-12T18:42:45.529Z,6.83
2024-02-12T18:45:17.185Z,6.79
2024-02-12T18:47:48.345Z,6.72
2024-02-12T18:50:15.947Z,6.63
2024-02-12T18:52:47.397Z,6.65
2024-02-12T18:55:14.517Z,6.69
2024-02-12T18:57:42.817Z,6.81
2024-02-12T19:00:09.839Z,6.81
2024-02-12T19:02:36.868Z,6.78
2024-02-12T19:05:03.843Z,6.89
2024-02-12T19:07:32.982Z,6.76
2024-02-12T19:09:59.476Z,6.81
2024-02-12T19:12:29.654Z,6.72
2024-02-12T19:14:58.487Z,6.77
2024-02-12T19:17:24.995Z,6.82
2024-02-12T19:19:51.479Z,6.77
2024-02-12T19:22:20.389Z,6.74
2024-02-12T19:24:50.178Z,6.67
2024-02-12T19:27:16.676Z,6.63
2024-02-12T19:29:46.805Z,6.71
2024-02-12T19:32:15.697Z,6.59
2024-02-12T19:34:44.516Z,6.58
2024-02-12T19:37:11.005Z,6.51
2024-02-12T19:39:37.469Z,6.65
2024-02-12T19:42:05.507Z,6.59
2024-02-12T19:44:32.149Z,6.74
2024-02-12T19:47:03.340Z,6.53
2024-02-12T19:49:30.025Z,6.59
2024-02-12T19:51:56.503Z,6.57
2024-02-12T19:54:22.952Z,6.71
2024-02-12T19:56:51.889Z,6.51
2024-02-12T19:59:18.426Z,6.70
2024-02-12T20:01:46.331Z,6.60
2024-02-12T20:04:12.817Z,6.50
2024-02-12T20:06:41.875Z,6.54
2024-02-12T20:09:13.002Z,6.58
2024-02-12T20:11:42.026Z,6.40
2024-02-12T20:14:08.573Z,6.29
2024-02-12T20:16:37.812Z,6.50
2024-02-12T20:19:06.862Z,6.43
2024-02-12T20:21:35.889Z,6.38
2024-02-12T20:24:05.973Z,6.36
2024-02-12T20:26:33.963Z,6.26
2024-02-12T20:29:04.900Z,6.47
2024-02-12T20:31:37.021Z,6.52
2024-02-12T20:34:03.537Z,6.56
2024-02-12T20:36:30.766Z,6.33
2024-02-12T20:38:57.467Z,6.26
2024-02-12T20:41:23.914Z,6.38
2024-02-12T20:43:50.421Z,6.32
2024-02-12T20:46:16.835Z,6.26
2024-02-12T20:48:43.522Z,6.26
2024-02-12T20:51:12.292Z,6.37
2024-02-12T20:53:39.634Z,6.40
2024-02-12T20:56:07.301Z,6.04
2024-02-12T20:58:36.086Z,6.47
2024-02-12T21:01:02.555Z,6.40
2024-02-12T21:03:31.288Z,6.39
2024-02-12T21:05:58.694Z,6.26
2024-02-12T21:08:27.494Z,6.42
2024-02-12T21:10:54.038Z,6.62
2024-02-12T21:13:20.482Z,6.61
2024-02-12T21:15:46.955Z,6.26
2024-02-12T21:18:19.015Z,6.67
2024-02-12T21:20:50.807Z,6.69
2024-02-12T21:23:19.955Z,6.29
2024-02-12T21:25:46.495Z,6.54
2024-02-12T21:28:17.781Z,6.54
2024-02-12T21:30:44.245Z,6.40
2024-02-12T21:33:10.928Z,6.47
2024-02-12T21:35:39.764Z,6.31
2024-02-12T21:38:08.870Z,6.51
2024-02-12T21:40:39.123Z,6.62
2024-02-12T21:43:06.652Z,6.57
2024-02-12T21:45:35.315Z,6.55
2024-02-12T21:48:04.225Z,6.68
2024-02-12T21:50:37.523Z,6.76
2024-02-12T21:53:06.608Z,6.68
2024-02-12T21:55:33.265Z,6.68
2024-02-12T21:58:02.094Z,6.78
2024-02-12T22:00:29.198Z,6.69
2024-02-12T22:02:56.359Z,6.84
2024-02-12T22:05:26.223Z,6.75
2024-02-12T22:07:52.937Z,6.78
2024-02-12T22:10:21.785Z,6.70
2024-02-12T22:12:48.485Z,6.60
2024-02-12T22:15:19.849Z,6.53
2024-02-12T22:17:46.348Z,6.51
2024-02-12T22:20:22.056Z,6.69
2024-02-12T22:22:53.167Z,6.62
2024-02-12T22:25:19.822Z,6.58
2024-02-12T22:27:48.901Z,6.43
2024-02-12T22:30:17.939Z,6.64
2024-02-12T22:32:46.832Z,6.54
2024-02-12T22:35:13.398Z,6.58
2024-02-12T22:37:39.931Z,6.43
2024-02-12T22:40:07.526Z,6.48
2024-02-12T22:42:33.983Z,6.61
2024-02-12T22:45:02.882Z,6.31
2024-02-12T22:47:29.484Z,6.08
2024-02-12T22:49:56.093Z,6.18
2024-02-12T22:52:22.541Z,6.08
2024-02-12T22:54:49.006Z,5.94
2024-02-12T22:57:15.442Z,6.02
2024-02-12T22:59:42.198Z,5.94
2024-02-12T23:02:09.796Z,5.76
2024-02-12T23:04:40.859Z,5.96
2024-02-12T23:07:07.357Z,5.83
2024-02-12T23:09:33.868Z,5.87
2024-02-12T23:12:00.401Z,6.23
2024-02-12T23:14:26.929Z,6.36
2024-02-12T23:16:53.415Z,6.21
2024-02-12T23:19:20.163Z,6.08
2024-02-12T23:21:46.686Z,6.16
2024-02-12T23:24:13.650Z,6.33
2024-02-12T23:26:43.605Z,6.22
2024-02-12T23:29:11.867Z,6.18
2024-02-12T23:31:41.126Z,6.25
2024-02-12T23:34:09.780Z,6.23
2024-02-12T23:36:36.284Z,6.10
2024-02-12T23:39:05.681Z,6.03
2024-02-12T23:41:34.728Z,5.98
2024-02-12T23:44:01.220Z,5.55
2024-02-12T23:46:28.093Z,5.89
2024-02-12T23:48:54.840Z,5.78
2024-02-12T23:51:26.117Z,5.81
2024-02-12T23:53:55.081Z,5.69
2024-02-12T23:56:24.297Z,5.61
2024-02-12T23:58:53.144Z,5.74
